sensor_id;sensor_type;location;lat;lon;timestamp;P1;durP1;ratioP1;P2;durP2;ratioP2
40629;SDS011;26329;40.388;-3.710;2024-03-02T00:03:17;28.13;;;16.55;;
40629;SDS011;26329;40.388;-3.710;2024-03-02T00:13:20;29.47;;;16.80;;
40629;SDS011;26329;40.388;-3.710;2024-03-02T00:23:27;28.27;;;16.50;;
40629;SDS011;26329;40.388;-3.710;2024-03-02T00:33:39;28.20;;;16.73;;
40629;SDS011;26329;40.388;-3.710;2024-03-02T00:53:55;29.33;;;16.87;;
40629;SDS011;26329;40.388;-3.710;2024-03-02T01:03:57;28.53;;;16.57;;
40629;SDS011;26329;40.388;-3.710;2024-03-02T01:13:58;28.03;;;16.63;;
40629;SDS011;26329;40.388;-3.710;2024-03-02T01:24:00;27.83;;;16.50;;
40629;SDS011;26329;40.388;-3.710;2024-03-02T01:34:01;27.73;;;16.40;;
40629;SDS011;26329;40.388;-3.710;2024-03-02T01:44:03;27.10;;;16.23;;
40629;SDS011;26329;40.388;-3.710;2024-03-02T01:54:05;28.03;;;16.50;;
40629;SDS011;26329;40.388;-3.710;2024-03-02T02:04:06;27.27;;;16.30;;
40629;SDS011;26329;40.388;-3.710;2024-03-02T02:14:08;26.77;;;16.10;;
40629;SDS011;26329;40.388;-3.710;2024-03-02T02:24:09;26.80;;;16.10;;
40629;SDS011;26329;40.388;-3.710;2024-03-02T02:34:11;26.90;;;16.10;;
40629;SDS011;26329;40.388;-3.710;2024-03-02T02:44:14;27.60;;;16.33;;
40629;SDS011;26329;40.388;-3.710;2024-03-02T02:54:16;27.43;;;16.30;;
40629;SDS011;26329;40.388;-3.710;2024-03-02T03:04:17;27.37;;;16.13;;
40629;SDS011;26329;40.388;-3.710;2024-03-02T03:14:19;26.93;;;16.13;;
40629;SDS011;26329;40.388;-3.710;2024-03-02T03:24:20;27.13;;;16.10;;
40629;SDS011;26329;40.388;-3.710;2024-03-02T03:34:21;27.63;;;16.30;;
40629;SDS011;26329;40.388;-3.710;2024-03-02T03:44:23;27.90;;;16.47;;
40629;SDS011;26329;40.388;-3.710;2024-03-02T03:54:24;26.77;;;16.03;;
40629;SDS011;26329;40.388;-3.710;2024-03-02T04:04:26;26.87;;;16.20;;
40629;SDS011;26329;40.388;-3.710;2024-03-02T04:14:27;28.23;;;16.63;;
40629;SDS011;26329;40.388;-3.710;2024-03-02T04:24:28;27.67;;;16.37;;
40629;SDS011;26329;40.388;-3.710;2024-03-02T04:34:30;28.20;;;16.60;;
40629;SDS011;26329;40.388;-3.710;2024-03-02T04:44:31;27.80;;;16.40;;
40629;SDS011;26329;40.388;-3.710;2024-03-02T04:54:33;28.03;;;16.43;;
40629;SDS011;26329;40.388;-3.710;2024-03-02T05:04:54;27.97;;;16.47;;
40629;SDS011;26329;40.388;-3.710;2024-03-02T05:14:55;28.67;;;16.60;;
40629;SDS011;26329;40.388;-3.710;2024-03-02T05:24:57;29.30;;;16.83;;
40629;SDS011;26329;40.388;-3.710;2024-03-02T05:35:00;29.33;;;16.87;;
40629;SDS011;26329;40.388;-3.710;2024-03-02T05:45:01;29.60;;;16.90;;
40629;SDS011;26329;40.388;-3.710;2024-03-02T05:55:03;29.97;;;16.93;;
40629;SDS011;26329;40.388;-3.710;2024-03-02T06:05:05;29.40;;;16.83;;
40629;SDS011;26329;40.388;-3.710;2024-03-02T06:15:10;30.27;;;17.00;;
40629;SDS011;26329;40.388;-3.710;2024-03-02T06:25:11;31.00;;;17.30;;
40629;SDS011;26329;40.388;-3.710;2024-03-02T06:35:13;31.70;;;17.40;;
40629;SDS011;26329;40.388;-3.710;2024-03-02T06:45:16;31.50;;;17.27;;
40629;SDS011;26329;40.388;-3.710;2024-03-02T06:55:18;32.50;;;17.57;;
40629;SDS011;26329;40.388;-3.710;2024-03-02T07:05:19;32.47;;;17.57;;
40629;SDS011;26329;40.388;-3.710;2024-03-02T07:15:21;32.60;;;17.60;;
40629;SDS011;26329;40.388;-3.710;2024-03-02T07:25:28;32.77;;;17.70;;
40629;SDS011;26329;40.388;-3.710;2024-03-02T07:35:30;33.57;;;17.97;;
40629;SDS011;26329;40.388;-3.710;2024-03-02T07:45:33;32.57;;;17.70;;
40629;SDS011;26329;40.388;-3.710;2024-03-02T07:55:36;32.90;;;17.67;;
40629;SDS011;26329;40.388;-3.710;2024-03-02T08:05:38;33.27;;;17.77;;
40629;SDS011;26329;40.388;-3.710;2024-03-02T08:15:39;33.23;;;17.80;;
40629;SDS011;26329;40.388;-3.710;2024-03-02T08:25:41;33.13;;;17.80;;
40629;SDS011;26329;40.388;-3.710;2024-03-02T08:35:43;33.33;;;17.90;;
40629;SDS011;26329;40.388;-3.710;2024-03-02T08:45:46;34.57;;;18.17;;
40629;SDS011;26329;40.388;-3.710;2024-03-02T08:55:47;34.97;;;18.27;;
40629;SDS011;26329;40.388;-3.710;2024-03-02T09:05:49;36.20;;;18.60;;
40629;SDS011;26329;40.388;-3.710;2024-03-02T09:15:50;36.50;;;18.57;;
40629;SDS011;26329;40.388;-3.710;2024-03-02T09:25:52;37.07;;;18.77;;
40629;SDS011;26329;40.388;-3.710;2024-03-02T09:35:53;37.67;;;18.80;;
40629;SDS011;26329;40.388;-3.710;2024-03-02T09:45:56;37.47;;;18.77;;
40629;SDS011;26329;40.388;-3.710;2024-03-02T09:56:01;37.93;;;18.97;;
40629;SDS011;26329;40.388;-3.710;2024-03-02T10:16:22;38.50;;;19.13;;
40629;SDS011;26329;40.388;-3.710;2024-03-02T10:26:23;39.67;;;19.40;;
40629;SDS011;26329;40.388;-3.710;2024-03-02T10:36:25;38.03;;;18.97;;
40629;SDS011;26329;40.388;-3.710;2024-03-02T10:46:27;37.47;;;18.90;;
40629;SDS011;26329;40.388;-3.710;2024-03-02T10:56:40;38.00;;;18.93;;
40629;SDS011;26329;40.388;-3.710;2024-03-02T11:06:48;37.30;;;18.77;;
40629;SDS011;26329;40.388;-3.710;2024-03-02T11:16:50;36.00;;;18.50;;
40629;SDS011;26329;40.388;-3.710;2024-03-02T11:26:52;36.17;;;18.60;;
40629;SDS011;26329;40.388;-3.710;2024-03-02T11:36:54;36.03;;;18.53;;
40629;SDS011;26329;40.388;-3.710;2024-03-02T11:46:58;37.27;;;18.87;;
40629;SDS011;26329;40.388;-3.710;2024-03-02T11:57:01;37.20;;;18.70;;
40629;SDS011;26329;40.388;-3.710;2024-03-02T12:07:02;37.63;;;18.83;;
40629;SDS011;26329;40.388;-3.710;2024-03-02T12:17:04;38.40;;;18.93;;
40629;SDS011;26329;40.388;-3.710;2024-03-02T12:27:06;38.33;;;19.00;;
40629;SDS011;26329;40.388;-3.710;2024-03-02T12:37:08;39.47;;;19.33;;
40629;SDS011;26329;40.388;-3.710;2024-03-02T12:47:14;39.50;;;19.50;;
40629;SDS011;26329;40.388;-3.710;2024-03-02T12:57:17;40.77;;;19.77;;
40629;SDS011;26329;40.388;-3.710;2024-03-02T13:07:19;41.50;;;19.83;;
40629;SDS011;26329;40.388;-3.710;2024-03-02T13:17:20;40.37;;;19.50;;
40629;SDS011;26329;40.388;-3.710;2024-03-02T13:27:22;40.90;;;19.63;;
40629;SDS011;26329;40.388;-3.710;2024-03-02T13:37:24;40.07;;;19.57;;
40629;SDS011;26329;40.388;-3.710;2024-03-02T13:47:27;39.47;;;19.37;;
40629;SDS011;26329;40.388;-3.710;2024-03-02T13:57:29;40.00;;;19.50;;
40629;SDS011;26329;40.388;-3.710;2024-03-02T14:07:31;39.63;;;19.37;;
40629;SDS011;26329;40.388;-3.710;2024-03-02T14:17:32;39.67;;;19.47;;
40629;SDS011;26329;40.388;-3.710;2024-03-02T14:27:33;38.30;;;19.10;;
40629;SDS011;26329;40.388;-3.710;2024-03-02T14:37:36;38.40;;;19.10;;
40629;SDS011;26329;40.388;-3.710;2024-03-02T14:47:39;37.70;;;18.90;;
40629;SDS011;26329;40.388;-3.710;2024-03-02T14:57:41;39.97;;;19.47;;
40629;SDS011;26329;40.388;-3.710;2024-03-02T15:07:43;39.43;;;19.40;;
40629;SDS011;26329;40.388;-3.710;2024-03-02T15:17:44;38.17;;;19.03;;
40629;SDS011;26329;40.388;-3.710;2024-03-02T15:27:46;38.30;;;19.13;;
40629;SDS011;26329;40.388;-3.710;2024-03-02T15:37:47;39.27;;;19.33;;
40629;SDS011;26329;40.388;-3.710;2024-03-02T15:47:50;39.53;;;19.37;;
40629;SDS011;26329;40.388;-3.710;2024-03-02T15:57:52;39.30;;;19.40;;
40629;SDS011;26329;40.388;-3.710;2024-03-02T16:07:53;38.30;;;18.97;;
40629;SDS011;26329;40.388;-3.710;2024-03-02T16:17:54;38.90;;;19.17;;
40629;SDS011;26329;40.388;-3.710;2024-03-02T16:27:56;38.10;;;19.03;;
40629;SDS011;26329;40.388;-3.710;2024-03-02T16:37:57;40.67;;;19.57;;
40629;SDS011;26329;40.388;-3.710;2024-03-02T16:47:59;39.87;;;19.10;;
40629;SDS011;26329;40.388;-3.710;2024-03-02T16:58:00;37.03;;;18.40;;
40629;SDS011;26329;40.388;-3.710;2024-03-02T17:08:02;35.17;;;18.07;;
40629;SDS011;26329;40.388;-3.710;2024-03-02T17:18:03;35.57;;;18.17;;
40629;SDS011;26329;40.388;-3.710;2024-03-02T17:28:21;32.60;;;17.40;;
40629;SDS011;26329;40.388;-3.710;2024-03-02T17:38:24;31.53;;;17.30;;
40629;SDS011;26329;40.388;-3.710;2024-03-02T17:48:25;31.77;;;17.30;;
40629;SDS011;26329;40.388;-3.710;2024-03-02T17:58:27;32.20;;;17.40;;
40629;SDS011;26329;40.388;-3.710;2024-03-02T18:08:28;32.43;;;17.57;;
40629;SDS011;26329;40.388;-3.710;2024-03-02T18:18:30;32.90;;;17.70;;
40629;SDS011;26329;40.388;-3.710;2024-03-02T18:28:31;31.63;;;17.30;;
40629;SDS011;26329;40.388;-3.710;2024-03-02T18:38:36;33.03;;;17.63;;
40629;SDS011;26329;40.388;-3.710;2024-03-02T18:48:37;34.57;;;17.97;;
40629;SDS011;26329;40.388;-3.710;2024-03-02T18:58:40;36.60;;;18.43;;
40629;SDS011;26329;40.388;-3.710;2024-03-02T19:08:41;35.73;;;18.23;;
40629;SDS011;26329;40.388;-3.710;2024-03-02T19:18:43;37.20;;;18.43;;
40629;SDS011;26329;40.388;-3.710;2024-03-02T19:28:44;37.57;;;18.53;;
40629;SDS011;26329;40.388;-3.710;2024-03-02T19:38:47;36.47;;;18.33;;
40629;SDS011;26329;40.388;-3.710;2024-03-02T19:48:49;35.43;;;17.97;;
40629;SDS011;26329;40.388;-3.710;2024-03-02T19:58:50;35.67;;;18.07;;
40629;SDS011;26329;40.388;-3.710;2024-03-02T20:08:52;35.40;;;18.07;;
40629;SDS011;26329;40.388;-3.710;2024-03-02T20:18:53;34.80;;;17.83;;
40629;SDS011;26329;40.388;-3.710;2024-03-02T20:28:55;34.83;;;17.90;;
40629;SDS011;26329;40.388;-3.710;2024-03-02T20:38:58;36.47;;;18.37;;
40629;SDS011;26329;40.388;-3.710;2024-03-02T20:49:00;35.27;;;18.00;;
40629;SDS011;26329;40.388;-3.710;2024-03-02T20:59:02;35.67;;;18.13;;
40629;SDS011;26329;40.388;-3.710;2024-03-02T21:09:05;35.97;;;18.13;;
40629;SDS011;26329;40.388;-3.710;2024-03-02T21:19:07;35.20;;;17.77;;
40629;SDS011;26329;40.388;-3.710;2024-03-02T21:29:09;36.10;;;18.13;;
40629;SDS011;26329;40.388;-3.710;2024-03-02T21:39:12;34.10;;;17.60;;
40629;SDS011;26329;40.388;-3.710;2024-03-02T21:49:14;36.27;;;18.20;;
40629;SDS011;26329;40.388;-3.710;2024-03-02T21:59:15;36.23;;;18.27;;
40629;SDS011;26329;40.388;-3.710;2024-03-02T22:09:16;36.37;;;18.20;;
40629;SDS011;26329;40.388;-3.710;2024-03-02T22:19:18;36.03;;;18.20;;
40629;SDS011;26329;40.388;-3.710;2024-03-02T22:29:19;35.97;;;18.03;;
40629;SDS011;26329;40.388;-3.710;2024-03-02T22:39:22;37.17;;;18.33;;
40629;SDS011;26329;40.388;-3.710;2024-03-02T22:49:24;36.33;;;18.17;;
40629;SDS011;26329;40.388;-3.710;2024-03-02T22:59:25;38.47;;;18.70;;
40629;SDS011;26329;40.388;-3.710;2024-03-02T23:09:26;38.17;;;18.60;;
40629;SDS011;26329;40.388;-3.710;2024-03-02T23:19:28;37.97;;;18.50;;
40629;SDS011;26329;40.388;-3.710;2024-03-02T23:29:29;36.40;;;18.07;;
40629;SDS011;26329;40.388;-3.710;2024-03-02T23:39:35;37.20;;;18.47;;
40629;SDS011;26329;40.388;-3.710;2024-03-02T23:49:55;36.97;;;18.37;;
40629;SDS011;26329;40.388;-3.710;2024-03-02T23:59:57;37.13;;;18.37;;
